sensor_id;sensor_type;location;lat;lon;timestamp;pressure;altitude;pressure_sealevel;temperature;humidity
12219;BME280;6172;42.646;23.344;2022-12-10T00:00:20;94020.16;;;7.07;100.00
12219;BME280;6172;42.646;23.344;2022-12-10T00:02:50;93988.78;;;7.09;100.00
12219;BME280;6172;42.646;23.344;2022-12-10T00:05:22;94007.91;;;7.25;100.00
12219;BME280;6172;42.646;23.344;2022-12-10T00:07:49;94004.13;;;7.19;100.00
12219;BME280;6172;42.646;23.344;2022-12-10T00:10:18;94002.06;;;7.27;100.00
12219;BME280;6172;42.646;23.344;2022-12-10T00:12:45;93995.31;;;7.12;100.00
12219;BME280;6172;42.646;23.344;2022-12-10T00:15:11;93998.75;;;7.16;100.00
12219;BME280;6172;42.646;23.344;2022-12-10T00:17:38;93999.47;;;7.20;100.00
12219;BME280;6172;42.646;23.344;2022-12-10T00:20:10;93975.03;;;7.23;100.00
12219;BME280;6172;42.646;23.344;2022-12-10T00:22:37;93969.91;;;7.29;100.00
12219;BME280;6172;42.646;23.344;2022-12-10T00:25:04;93980.50;;;7.20;100.00
12219;BME280;6172;42.646;23.344;2022-12-10T00:27:33;93972.19;;;7.34;100.00
12219;BME280;6172;42.646;23.344;2022-12-10T00:30:00;93958.72;;;7.00;100.00
12219;BME280;6172;42.646;23.344;2022-12-10T00:32:27;93976.09;;;7.03;100.00
12219;BME280;6172;42.646;23.344;2022-12-10T00:34:54;93991.22;;;7.00;100.00
12219;BME280;6172;42.646;23.344;2022-12-10T00:37:20;94004.28;;;7.09;100.00
12219;BME280;6172;42.646;23.344;2022-12-10T00:39:47;93990.91;;;6.95;100.00
12219;BME280;6172;42.646;23.344;2022-12-10T00:42:14;93987.69;;;7.03;100.00
12219;BME280;6172;42.646;23.344;2022-12-10T00:44:42;93985.19;;;7.16;100.00
12219;BME280;6172;42.646;23.344;2022-12-10T00:47:10;93986.47;;;7.08;100.00
12219;BME280;6172;42.646;23.344;2022-12-10T00:49:37;93979.09;;;7.08;100.00
12219;BME280;6172;42.646;23.344;2022-12-10T00:52:04;93999.25;;;7.07;100.00
12219;BME280;6172;42.646;23.344;2022-12-10T00:54:34;93993.84;;;7.07;100.00
12219;BME280;6172;42.646;23.344;2022-12-10T00:57:01;93997.06;;;6.95;100.00
12219;BME280;6172;42.646;23.344;2022-12-10T00:59:28;94013.97;;;7.06;100.00
12219;BME280;6172;42.646;23.344;2022-12-10T01:02:02;94006.88;;;7.16;100.00
12219;BME280;6172;42.646;23.344;2022-12-10T01:04:28;93993.84;;;7.07;100.00
12219;BME280;6172;42.646;23.344;2022-12-10T01:06:56;94005.84;;;7.06;100.00
12219;BME280;6172;42.646;23.344;2022-12-10T01:09:26;94009.56;;;7.19;100.00
12219;BME280;6172;42.646;23.344;2022-12-10T01:11:57;93979.91;;;7.05;100.00
12219;BME280;6172;42.646;23.344;2022-12-10T01:14:28;93990.94;;;6.91;100.00
12219;BME280;6172;42.646;23.344;2022-12-10T01:17:00;93993.94;;;7.00;100.00
12219;BME280;6172;42.646;23.344;2022-12-10T01:19:29;93983.09;;;7.00;100.00
12219;BME280;6172;42.646;23.344;2022-12-10T01:21:56;93991.91;;;7.08;100.00
12219;BME280;6172;42.646;23.344;2022-12-10T01:24:25;93986.31;;;7.18;100.00
12219;BME280;6172;42.646;23.344;2022-12-10T01:26:53;93975.25;;;7.09;100.00
12219;BME280;6172;42.646;23.344;2022-12-10T01:29:22;93966.28;;;6.82;100.00
12219;BME280;6172;42.646;23.344;2022-12-10T01:31:54;93976.59;;;6.94;100.00
12219;BME280;6172;42.646;23.344;2022-12-10T01:34:27;93971.53;;;6.96;100.00
12219;BME280;6172;42.646;23.344;2022-12-10T01:36:54;93950.53;;;7.04;100.00
12219;BME280;6172;42.646;23.344;2022-12-10T01:39:22;93965.66;;;7.01;100.00
12219;BME280;6172;42.646;23.344;2022-12-10T01:41:51;93975.00;;;6.97;100.00
12219;BME280;6172;42.646;23.344;2022-12-10T01:44:56;93968.97;;;6.86;100.00
12219;BME280;6172;42.646;23.344;2022-12-10T01:47:23;93977.00;;;6.93;100.00
12219;BME280;6172;42.646;23.344;2022-12-10T01:49:51;93979.16;;;7.05;100.00
12219;BME280;6172;42.646;23.344;2022-12-10T01:52:19;93964.06;;;7.04;100.00
12219;BME280;6172;42.646;23.344;2022-12-10T01:54:46;93952.22;;;6.94;100.00
12219;BME280;6172;42.646;23.344;2022-12-10T01:57:16;93967.28;;;6.95;100.00
12219;BME280;6172;42.646;23.344;2022-12-10T01:59:48;93969.06;;;7.05;100.00
12219;BME280;6172;42.646;23.344;2022-12-10T02:02:23;93962.19;;;7.01;100.00
12219;BME280;6172;42.646;23.344;2022-12-10T02:05:02;93965.94;;;7.10;100.00
12219;BME280;6172;42.646;23.344;2022-12-10T02:07:38;93959.91;;;6.99;100.00
12219;BME280;6172;42.646;23.344;2022-12-10T02:10:15;93973.06;;;6.97;100.00
12219;BME280;6172;42.646;23.344;2022-12-10T02:12:49;93990.75;;;7.05;100.00
12219;BME280;6172;42.646;23.344;2022-12-10T02:15:20;93986.31;;;7.18;100.00
12219;BME280;6172;42.646;23.344;2022-12-10T02:17:52;93970.47;;;7.17;100.00
12219;BME280;6172;42.646;23.344;2022-12-10T02:20:24;93977.69;;;7.00;100.00
12219;BME280;6172;42.646;23.344;2022-12-10T02:22:55;93975.34;;;7.02;100.00
12219;BME280;6172;42.646;23.344;2022-12-10T02:25:28;93951.31;;;7.04;100.00
12219;BME280;6172;42.646;23.344;2022-12-10T02:28:05;93953.50;;;7.13;100.00
12219;BME280;6172;42.646;23.344;2022-12-10T02:30:39;93952.69;;;7.16;100.00
12219;BME280;6172;42.646;23.344;2022-12-10T02:33:07;93940.03;;;7.09;100.00
12219;BME280;6172;42.646;23.344;2022-12-10T02:35:37;93951.84;;;7.22;100.00
12219;BME280;6172;42.646;23.344;2022-12-10T02:38:11;93955.69;;;7.21;100.00
12219;BME280;6172;42.646;23.344;2022-12-10T02:40:44;93947.81;;;7.30;100.00
12219;BME280;6172;42.646;23.344;2022-12-10T02:43:13;93938.22;;;6.99;100.00
12219;BME280;6172;42.646;23.344;2022-12-10T02:45:43;93925.66;;;7.12;100.00
12219;BME280;6172;42.646;23.344;2022-12-10T02:48:11;93927.38;;;7.26;100.00
12219;BME280;6172;42.646;23.344;2022-12-10T02:50:39;93934.16;;;7.37;100.00
12219;BME280;6172;42.646;23.344;2022-12-10T02:53:06;93924.81;;;7.42;100.00
12219;BME280;6172;42.646;23.344;2022-12-10T02:58:29;93946.31;;;7.29;100.00
12219;BME280;6172;42.646;23.344;2022-12-10T03:01:09;93942.84;;;7.25;100.00
12219;BME280;6172;42.646;23.344;2022-12-10T03:03:42;93941.31;;;7.51;100.00
12219;BME280;6172;42.646;23.344;2022-12-10T03:06:17;93931.75;;;7.43;100.00
12219;BME280;6172;42.646;23.344;2022-12-10T03:08:49;93930.75;;;7.56;100.00
12219;BME280;6172;42.646;23.344;2022-12-10T03:11:18;93928.75;;;7.37;100.00
12219;BME280;6172;42.646;23.344;2022-12-10T03:13:53;93941.78;;;7.46;100.00
12219;BME280;6172;42.646;23.344;2022-12-10T03:16:23;93926.81;;;7.38;100.00
12219;BME280;6172;42.646;23.344;2022-12-10T03:18:55;93934.28;;;7.53;100.00
12219;BME280;6172;42.646;23.344;2022-12-10T03:21:24;93936.44;;;7.65;100.00
12219;BME280;6172;42.646;23.344;2022-12-10T03:23:53;93937.00;;;7.53;100.00
12219;BME280;6172;42.646;23.344;2022-12-10T03:26:21;93936.47;;;7.62;100.00
12219;BME280;6172;42.646;23.344;2022-12-10T03:28:50;93944.09;;;7.70;100.00
12219;BME280;6172;42.646;23.344;2022-12-10T03:31:19;93926.81;;;7.61;100.00
12219;BME280;6172;42.646;23.344;2022-12-10T03:33:48;93918.28;;;7.62;100.00
12219;BME280;6172;42.646;23.344;2022-12-10T03:36:17;93917.66;;;7.74;100.00
12219;BME280;6172;42.646;23.344;2022-12-10T03:38:45;93929.94;;;7.82;100.00
12219;BME280;6172;42.646;23.344;2022-12-10T03:41:12;93918.19;;;7.89;100.00
12219;BME280;6172;42.646;23.344;2022-12-10T03:43:50;93921.81;;;7.82;100.00
12219;BME280;6172;42.646;23.344;2022-12-10T03:46:17;93910.03;;;7.89;100.00
12219;BME280;6172;42.646;23.344;2022-12-10T03:48:44;93919.38;;;7.88;100.00
12219;BME280;6172;42.646;23.344;2022-12-10T03:51:12;93913.03;;;7.94;100.00
12219;BME280;6172;42.646;23.344;2022-12-10T03:53:40;93900.13;;;8.02;100.00
12219;BME280;6172;42.646;23.344;2022-12-10T03:56:07;93900.25;;;7.95;100.00
12219;BME280;6172;42.646;23.344;2022-12-10T03:58:35;93907.94;;;8.00;100.00
12219;BME280;6172;42.646;23.344;2022-12-10T04:01:02;93889.25;;;8.02;100.00
12219;BME280;6172;42.646;23.344;2022-12-10T04:03:29;93885.63;;;7.89;100.00
12219;BME280;6172;42.646;23.344;2022-12-10T04:06:01;93899.69;;;8.03;100.00
12219;BME280;6172;42.646;23.344;2022-12-10T04:08:29;93896.84;;;8.10;100.00
12219;BME280;6172;42.646;23.344;2022-12-10T04:11:02;93881.34;;;8.11;100.00
12219;BME280;6172;42.646;23.344;2022-12-10T04:13:31;93889.56;;;8.27;100.00
12219;BME280;6172;42.646;23.344;2022-12-10T04:16:15;93878.53;;;7.95;100.00
12219;BME280;6172;42.646;23.344;2022-12-10T04:18:56;93875.78;;;7.98;100.00
12219;BME280;6172;42.646;23.344;2022-12-10T04:21:24;93882.13;;;8.12;100.00
12219;BME280;6172;42.646;23.344;2022-12-10T04:24:10;93883.09;;;8.01;100.00
12219;BME280;6172;42.646;23.344;2022-12-10T04:27:06;93886.75;;;7.91;100.00
12219;BME280;6172;42.646;23.344;2022-12-10T04:29:42;93899.38;;;8.01;100.00
12219;BME280;6172;42.646;23.344;2022-12-10T04:32:09;93913.88;;;7.91;100.00
12219;BME280;6172;42.646;23.344;2022-12-10T04:34:36;93911.50;;;7.93;100.00
12219;BME280;6172;42.646;23.344;2022-12-10T04:37:04;93913.41;;;7.96;100.00
12219;BME280;6172;42.646;23.344;2022-12-10T04:39:32;93924.72;;;7.91;100.00
12219;BME280;6172;42.646;23.344;2022-12-10T04:42:00;93934.81;;;7.91;100.00
12219;BME280;6172;42.646;23.344;2022-12-10T04:44:27;93934.03;;;7.90;100.00
12219;BME280;6172;42.646;23.344;2022-12-10T04:46:54;93936.72;;;7.94;100.00
12219;BME280;6172;42.646;23.344;2022-12-10T04:49:22;93944.19;;;8.09;100.00
12219;BME280;6172;42.646;23.344;2022-12-10T04:51:55;93930.75;;;8.02;100.00
12219;BME280;6172;42.646;23.344;2022-12-10T04:54:36;93932.75;;;7.98;100.00
12219;BME280;6172;42.646;23.344;2022-12-10T04:57:03;93930.59;;;8.09;100.00
12219;BME280;6172;42.646;23.344;2022-12-10T04:59:30;93915.28;;;8.19;100.00
12219;BME280;6172;42.646;23.344;2022-12-10T05:01:57;93914.78;;;8.04;100.00
12219;BME280;6172;42.646;23.344;2022-12-10T05:04:24;93938.47;;;8.04;100.00
12219;BME280;6172;42.646;23.344;2022-12-10T05:06:51;93931.03;;;8.08;100.00
12219;BME280;6172;42.646;23.344;2022-12-10T05:09:18;93916.44;;;7.79;100.00
12219;BME280;6172;42.646;23.344;2022-12-10T05:11:46;93928.34;;;7.85;100.00
12219;BME280;6172;42.646;23.344;2022-12-10T05:14:14;93923.19;;;7.90;100.00
12219;BME280;6172;42.646;23.344;2022-12-10T05:16:51;93922.09;;;7.88;100.00
12219;BME280;6172;42.646;23.344;2022-12-10T05:19:29;93926.31;;;7.89;100.00
12219;BME280;6172;42.646;23.344;2022-12-10T05:21:58;93907.28;;;7.92;100.00
12219;BME280;6172;42.646;23.344;2022-12-10T05:24:48;93891.31;;;7.75;100.00
12219;BME280;6172;42.646;23.344;2022-12-10T05:27:19;93904.28;;;7.87;100.00
12219;BME280;6172;42.646;23.344;2022-12-10T05:29:55;93917.91;;;8.03;100.00
12219;BME280;6172;42.646;23.344;2022-12-10T05:32:28;93921.91;;;7.98;100.00
12219;BME280;6172;42.646;23.344;2022-12-10T05:34:58;93915.69;;;7.98;100.00
12219;BME280;6172;42.646;23.344;2022-12-10T05:37:27;93931.28;;;7.94;100.00
12219;BME280;6172;42.646;23.344;2022-12-10T05:39:55;93930.09;;;7.95;100.00
12219;BME280;6172;42.646;23.344;2022-12-10T05:42:29;93920.75;;;7.96;100.00
12219;BME280;6172;42.646;23.344;2022-12-10T05:44:58;93931.72;;;8.12;100.00
12219;BME280;6172;42.646;23.344;2022-12-10T05:47:28;93914.09;;;8.00;100.00
12219;BME280;6172;42.646;23.344;2022-12-10T05:50:00;93927.50;;;7.88;100.00
12219;BME280;6172;42.646;23.344;2022-12-10T05:52:27;93940.66;;;7.89;100.00
12219;BME280;6172;42.646;23.344;2022-12-10T05:54:53;93940.41;;;8.03;100.00
12219;BME280;6172;42.646;23.344;2022-12-10T05:57:21;93943.47;;;8.05;100.00
12219;BME280;6172;42.646;23.344;2022-12-10T05:59:52;93951.38;;;7.96;100.00
12219;BME280;6172;42.646;23.344;2022-12-10T06:02:18;93937.84;;;8.16;100.00
12219;BME280;6172;42.646;23.344;2022-12-10T06:04:48;93934.56;;;8.05;100.00
12219;BME280;6172;42.646;23.344;2022-12-10T06:07:17;93946.34;;;8.18;100.00
12219;BME280;6172;42.646;23.344;2022-12-10T06:09:45;93946.97;;;8.26;100.00
12219;BME280;6172;42.646;23.344;2022-12-10T06:12:15;93952.31;;;8.09;100.00
12219;BME280;6172;42.646;23.344;2022-12-10T06:14:42;93950.56;;;7.99;100.00
12219;BME280;6172;42.646;23.344;2022-12-10T06:17:10;93941.94;;;8.04;100.00
12219;BME280;6172;42.646;23.344;2022-12-10T06:19:37;93941.06;;;8.11;100.00
12219;BME280;6172;42.646;23.344;2022-12-10T06:22:04;93938.38;;;8.07;100.00
12219;BME280;6172;42.646;23.344;2022-12-10T06:24:34;93931.25;;;8.17;100.00
12219;BME280;6172;42.646;23.344;2022-12-10T06:27:01;93949.41;;;8.20;100.00
12219;BME280;6172;42.646;23.344;2022-12-10T06:29:28;93951.59;;;8.29;100.00
12219;BME280;6172;42.646;23.344;2022-12-10T06:31:57;93944.81;;;8.17;100.00
12219;BME280;6172;42.646;23.344;2022-12-10T06:34:28;93939.47;;;8.33;100.00
12219;BME280;6172;42.646;23.344;2022-12-10T06:36:55;93915.78;;;8.34;100.00
12219;BME280;6172;42.646;23.344;2022-12-10T06:39:22;93923.59;;;8.32;100.00
12219;BME280;6172;42.646;23.344;2022-12-10T06:41:52;93918.06;;;8.39;100.00
12219;BME280;6172;42.646;23.344;2022-12-10T06:44:19;93911.97;;;8.31;100.00
12219;BME280;6172;42.646;23.344;2022-12-10T06:46:46;93935.16;;;8.36;100.00
12219;BME280;6172;42.646;23.344;2022-12-10T06:49:12;93924.25;;;8.39;100.00
12219;BME280;6172;42.646;23.344;2022-12-10T06:51:41;93934.47;;;8.32;100.00
12219;BME280;6172;42.646;23.344;2022-12-10T06:54:10;93950.81;;;8.28;100.00
12219;BME280;6172;42.646;23.344;2022-12-10T06:56:37;93955.31;;;8.35;100.00
12219;BME280;6172;42.646;23.344;2022-12-10T06:59:04;93940.00;;;8.25;100.00
12219;BME280;6172;42.646;23.344;2022-12-10T07:01:33;93933.31;;;8.09;100.00
12219;BME280;6172;42.646;23.344;2022-12-10T07:04:00;93940.00;;;8.25;100.00
12219;BME280;6172;42.646;23.344;2022-12-10T07:09:15;93973.31;;;8.29;100.00
12219;BME280;6172;42.646;23.344;2022-12-10T07:11:42;93969.34;;;8.33;100.00
12219;BME280;6172;42.646;23.344;2022-12-10T07:14:13;93947.94;;;8.39;100.00
12219;BME280;6172;42.646;23.344;2022-12-10T07:16:41;93937.00;;;8.42;100.00
12219;BME280;6172;42.646;23.344;2022-12-10T07:19:09;93952.81;;;8.47;100.00
12219;BME280;6172;42.646;23.344;2022-12-10T07:21:39;93954.47;;;8.41;100.00
12219;BME280;6172;42.646;23.344;2022-12-10T07:24:09;93953.69;;;8.41;100.00
12219;BME280;6172;42.646;23.344;2022-12-10T07:26:41;93940.69;;;8.52;100.00
12219;BME280;6172;42.646;23.344;2022-12-10T07:29:17;93940.34;;;8.50;100.00
12219;BME280;6172;42.646;23.344;2022-12-10T07:31:47;93920.38;;;8.40;100.00
12219;BME280;6172;42.646;23.344;2022-12-10T07:34:17;93913.28;;;8.03;100.00
12219;BME280;6172;42.646;23.344;2022-12-10T07:36:44;93927.41;;;8.14;100.00
12219;BME280;6172;42.646;23.344;2022-12-10T07:39:15;93937.06;;;8.39;100.00
12219;BME280;6172;42.646;23.344;2022-12-10T07:41:47;93927.94;;;8.49;100.00
12219;BME280;6172;42.646;23.344;2022-12-10T07:44:18;93928.63;;;8.53;100.00
12219;BME280;6172;42.646;23.344;2022-12-10T07:46:49;93934.22;;;8.46;100.00
12219;BME280;6172;42.646;23.344;2022-12-10T07:49:21;93937.06;;;8.39;100.00
12219;BME280;6172;42.646;23.344;2022-12-10T07:51:49;93936.84;;;8.49;100.00
12219;BME280;6172;42.646;23.344;2022-12-10T07:54:17;93937.41;;;8.41;100.00
12219;BME280;6172;42.646;23.344;2022-12-10T07:56:50;93918.56;;;8.53;100.00
12219;BME280;6172;42.646;23.344;2022-12-10T07:59:17;93922.22;;;8.63;100.00
12219;BME280;6172;42.646;23.344;2022-12-10T08:01:45;93912.63;;;8.78;100.00
12219;BME280;6172;42.646;23.344;2022-12-10T08:04:13;93916.00;;;8.82;100.00
12219;BME280;6172;42.646;23.344;2022-12-10T08:06:43;93903.13;;;8.86;100.00
12219;BME280;6172;42.646;23.344;2022-12-10T08:09:10;93889.63;;;8.98;100.00
12219;BME280;6172;42.646;23.344;2022-12-10T08:11:37;93881.16;;;8.96;100.00
12219;BME280;6172;42.646;23.344;2022-12-10T08:14:06;93902.97;;;8.93;100.00
12219;BME280;6172;42.646;23.344;2022-12-10T08:16:33;93901.28;;;8.99;100.00
12219;BME280;6172;42.646;23.344;2022-12-10T08:19:00;93888.34;;;8.87;100.00
12219;BME280;6172;42.646;23.344;2022-12-10T08:21:28;93878.97;;;8.72;100.00
12219;BME280;6172;42.646;23.344;2022-12-10T08:23:59;93888.59;;;8.92;100.00
12219;BME280;6172;42.646;23.344;2022-12-10T08:26:30;93890.72;;;8.85;100.00
12219;BME280;6172;42.646;23.344;2022-12-10T08:28:58;93889.16;;;8.84;100.00
12219;BME280;6172;42.646;23.344;2022-12-10T08:31:27;93888.78;;;9.01;100.00
12219;BME280;6172;42.646;23.344;2022-12-10T08:33:54;93884.16;;;9.18;100.00
12219;BME280;6172;42.646;23.344;2022-12-10T08:36:22;93890.78;;;9.33;100.00
12219;BME280;6172;42.646;23.344;2022-12-10T08:38:49;93884.50;;;9.36;100.00
12219;BME280;6172;42.646;23.344;2022-12-10T08:41:18;93866.97;;;9.37;100.00
12219;BME280;6172;42.646;23.344;2022-12-10T08:43:46;93856.78;;;9.09;100.00
12219;BME280;6172;42.646;23.344;2022-12-10T08:46:15;93867.25;;;9.26;100.00
12219;BME280;6172;42.646;23.344;2022-12-10T08:48:45;93862.13;;;9.44;100.00
12219;BME280;6172;42.646;23.344;2022-12-10T08:51:16;93852.09;;;9.41;100.00
12219;BME280;6172;42.646;23.344;2022-12-10T08:53:44;93848.88;;;9.46;100.00
12219;BME280;6172;42.646;23.344;2022-12-10T08:56:11;93847.19;;;9.52;100.00
12219;BME280;6172;42.646;23.344;2022-12-10T08:58:39;93846.75;;;9.54;100.00
12219;BME280;6172;42.646;23.344;2022-12-10T09:01:09;93848.75;;;9.66;100.00
12219;BME280;6172;42.646;23.344;2022-12-10T09:03:43;93847.56;;;9.67;100.00
12219;BME280;6172;42.646;23.344;2022-12-10T09:06:12;93837.38;;;9.71;100.00
12219;BME280;6172;42.646;23.344;2022-12-10T09:08:43;93823.34;;;9.72;100.00
12219;BME280;6172;42.646;23.344;2022-12-10T09:11:15;93815.44;;;9.78;100.00
12219;BME280;6172;42.646;23.344;2022-12-10T09:13:45;93826.63;;;9.96;100.00
12219;BME280;6172;42.646;23.344;2022-12-10T09:16:12;93817.41;;;9.90;100.00
12219;BME280;6172;42.646;23.344;2022-12-10T09:18:39;93841.19;;;9.73;100.00
12219;BME280;6172;42.646;23.344;2022-12-10T09:21:13;93842.34;;;9.88;100.00
12219;BME280;6172;42.646;23.344;2022-12-10T09:23:41;93835.06;;;9.85;100.00
12219;BME280;6172;42.646;23.344;2022-12-10T09:26:10;93845.16;;;9.85;100.00
12219;BME280;6172;42.646;23.344;2022-12-10T09:28:37;93842.09;;;9.99;100.00
12219;BME280;6172;42.646;23.344;2022-12-10T09:31:05;93830.16;;;10.09;100.00
12219;BME280;6172;42.646;23.344;2022-12-10T09:33:33;93820.66;;;10.42;100.00
12219;BME280;6172;42.646;23.344;2022-12-10T09:36:02;93817.50;;;10.56;100.00
12219;BME280;6172;42.646;23.344;2022-12-10T09:38:33;93821.88;;;10.66;100.00
12219;BME280;6172;42.646;23.344;2022-12-10T09:41:02;93798.25;;;10.63;100.00
12219;BME280;6172;42.646;23.344;2022-12-10T09:43:41;93785.50;;;10.73;100.00
12219;BME280;6172;42.646;23.344;2022-12-10T09:46:20;93784.84;;;10.69;100.00
12219;BME280;6172;42.646;23.344;2022-12-10T09:48:57;93794.75;;;10.50;100.00
12219;BME280;6172;42.646;23.344;2022-12-10T09:51:29;93788.31;;;10.44;100.00
12219;BME280;6172;42.646;23.344;2022-12-10T09:54:00;93782.63;;;10.38;100.00
12219;BME280;6172;42.646;23.344;2022-12-10T09:56:32;93774.78;;;10.53;100.00
12219;BME280;6172;42.646;23.344;2022-12-10T09:59:03;93769.03;;;10.64;100.00
12219;BME280;6172;42.646;23.344;2022-12-10T10:01:34;93769.34;;;10.53;100.00
12219;BME280;6172;42.646;23.344;2022-12-10T10:04:03;93776.63;;;10.56;100.00
12219;BME280;6172;42.646;23.344;2022-12-10T10:06:30;93773.16;;;10.56;100.00
12219;BME280;6172;42.646;23.344;2022-12-10T10:09:01;93772.28;;;10.46;100.00
12219;BME280;6172;42.646;23.344;2022-12-10T10:11:34;93763.88;;;10.53;100.00
12219;BME280;6172;42.646;23.344;2022-12-10T10:14:08;93768.94;;;10.67;100.00
12219;BME280;6172;42.646;23.344;2022-12-10T10:16:42;93754.66;;;10.63;100.00
12219;BME280;6172;42.646;23.344;2022-12-10T10:19:13;93773.16;;;10.68;100.00
12219;BME280;6172;42.646;23.344;2022-12-10T10:21:43;93763.03;;;10.69;100.00
12219;BME280;6172;42.646;23.344;2022-12-10T10:24:15;93770.56;;;10.77;100.00
12219;BME280;6172;42.646;23.344;2022-12-10T10:26:45;93762.81;;;10.88;100.00
12219;BME280;6172;42.646;23.344;2022-12-10T10:29:15;93747.31;;;10.85;100.00
12219;BME280;6172;42.646;23.344;2022-12-10T10:31:43;93744.59;;;10.85;100.00
12219;BME280;6172;42.646;23.344;2022-12-10T10:34:15;93744.13;;;10.99;100.00
12219;BME280;6172;42.646;23.344;2022-12-10T10:36:45;93734.94;;;11.18;100.00
12219;BME280;6172;42.646;23.344;2022-12-10T10:39:24;93727.03;;;11.45;100.00
12219;BME280;6172;42.646;23.344;2022-12-10T10:41:54;93710.88;;;11.51;100.00
12219;BME280;6172;42.646;23.344;2022-12-10T10:44:25;93706.25;;;11.60;100.00
12219;BME280;6172;42.646;23.344;2022-12-10T10:46:55;93687.53;;;11.71;100.00
12219;BME280;6172;42.646;23.344;2022-12-10T10:49:24;93692.03;;;11.65;100.00
12219;BME280;6172;42.646;23.344;2022-12-10T10:51:53;93719.91;;;11.82;100.00
12219;BME280;6172;42.646;23.344;2022-12-10T10:54:34;93700.66;;;11.85;100.00
12219;BME280;6172;42.646;23.344;2022-12-10T10:57:03;93702.56;;;11.97;100.00
12219;BME280;6172;42.646;23.344;2022-12-10T10:59:32;93694.63;;;11.90;100.00
12219;BME280;6172;42.646;23.344;2022-12-10T11:02:04;93685.94;;;11.83;100.00
12219;BME280;6172;42.646;23.344;2022-12-10T11:04:46;93670.59;;;12.07;100.00
12219;BME280;6172;42.646;23.344;2022-12-10T11:07:19;93682.03;;;12.14;100.00
12219;BME280;6172;42.646;23.344;2022-12-10T11:09:49;93668.75;;;12.25;100.00
12219;BME280;6172;42.646;23.344;2022-12-10T11:12:35;93653.53;;;12.15;100.00
12219;BME280;6172;42.646;23.344;2022-12-10T11:15:04;93663.53;;;12.49;100.00
12219;BME280;6172;42.646;23.344;2022-12-10T11:17:46;93643.31;;;12.46;100.00
12219;BME280;6172;42.646;23.344;2022-12-10T11:20:17;93629.88;;;12.61;100.00
12219;BME280;6172;42.646;23.344;2022-12-10T11:22:49;93620.63;;;12.58;100.00
12219;BME280;6172;42.646;23.344;2022-12-10T11:25:19;93611.75;;;12.45;100.00
12219;BME280;6172;42.646;23.344;2022-12-10T11:27:56;93618.47;;;12.53;100.00
12219;BME280;6172;42.646;23.344;2022-12-10T11:30:26;93632.63;;;12.61;100.00
12219;BME280;6172;42.646;23.344;2022-12-10T11:33:09;93624.75;;;12.72;100.00
12219;BME280;6172;42.646;23.344;2022-12-10T11:35:50;93622.03;;;12.32;100.00
12219;BME280;6172;42.646;23.344;2022-12-10T11:38:24;93616.44;;;12.45;100.00
12219;BME280;6172;42.646;23.344;2022-12-10T11:41:03;93619.69;;;12.61;100.00
12219;BME280;6172;42.646;23.344;2022-12-10T11:43:51;93618.19;;;12.60;100.00
12219;BME280;6172;42.646;23.344;2022-12-10T11:46:34;93620.66;;;12.77;100.00
12219;BME280;6172;42.646;23.344;2022-12-10T11:49:14;93625.78;;;12.56;100.00
12219;BME280;6172;42.646;23.344;2022-12-10T11:51:46;93612.28;;;12.62;100.00
12219;BME280;6172;42.646;23.344;2022-12-10T11:54:32;93614.25;;;12.22;100.00
12219;BME280;6172;42.646;23.344;2022-12-10T11:57:15;93618.41;;;12.35;100.00
12219;BME280;6172;42.646;23.344;2022-12-10T11:59:49;93616.41;;;12.36;100.00
12219;BME280;6172;42.646;23.344;2022-12-10T12:02:39;93600.13;;;12.54;100.00
12219;BME280;6172;42.646;23.344;2022-12-10T12:05:23;93598.00;;;12.58;100.00
12219;BME280;6172;42.646;23.344;2022-12-10T12:07:57;93596.06;;;12.77;100.00
12219;BME280;6172;42.646;23.344;2022-12-10T12:10:36;93605.94;;;12.74;100.00
12219;BME280;6172;42.646;23.344;2022-12-10T12:13:09;93596.63;;;12.71;100.00
12219;BME280;6172;42.646;23.344;2022-12-10T12:15:41;93588.44;;;12.62;100.00
12219;BME280;6172;42.646;23.344;2022-12-10T12:18:17;93596.03;;;12.58;100.00
12219;BME280;6172;42.646;23.344;2022-12-10T12:20:48;93592.31;;;12.43;100.00
12219;BME280;6172;42.646;23.344;2022-12-10T12:23:26;93587.19;;;12.54;100.00
12219;BME280;6172;42.646;23.344;2022-12-10T12:26:00;93588.72;;;12.55;100.00
12219;BME280;6172;42.646;23.344;2022-12-10T12:28:36;93572.59;;;12.48;100.00
12219;BME280;6172;42.646;23.344;2022-12-10T12:31:12;93581.09;;;12.50;100.00
12219;BME280;6172;42.646;23.344;2022-12-10T12:33:45;93570.38;;;12.65;100.00
12219;BME280;6172;42.646;23.344;2022-12-10T12:36:16;93558.97;;;12.57;100.00
12219;BME280;6172;42.646;23.344;2022-12-10T12:38:51;93558.97;;;12.57;100.00
12219;BME280;6172;42.646;23.344;2022-12-10T12:41:26;93550.94;;;12.54;100.00
12219;BME280;6172;42.646;23.344;2022-12-10T12:44:00;93543.34;;;12.67;100.00
12219;BME280;6172;42.646;23.344;2022-12-10T12:46:33;93533.13;;;12.49;100.00
12219;BME280;6172;42.646;23.344;2022-12-10T12:49:08;93533.72;;;12.44;100.00
12219;BME280;6172;42.646;23.344;2022-12-10T12:51:40;93530.72;;;12.60;100.00
12219;BME280;6172;42.646;23.344;2022-12-10T12:54:10;93532.50;;;12.45;100.00
12219;BME280;6172;42.646;23.344;2022-12-10T12:56:52;93530.13;;;12.56;100.00
12219;BME280;6172;42.646;23.344;2022-12-10T12:59:34;93523.38;;;12.39;100.00
12219;BME280;6172;42.646;23.344;2022-12-10T13:02:13;93502.72;;;12.38;100.00
12219;BME280;6172;42.646;23.344;2022-12-10T13:04:43;93495.00;;;12.37;100.00
12219;BME280;6172;42.646;23.344;2022-12-10T13:07:34;93498.50;;;12.46;100.00
12219;BME280;6172;42.646;23.344;2022-12-10T13:10:23;93508.38;;;12.44;100.00
12219;BME280;6172;42.646;23.344;2022-12-10T13:13:06;93520.94;;;12.32;100.00
12219;BME280;6172;42.646;23.344;2022-12-10T13:15:38;93525.63;;;12.23;100.00
12219;BME280;6172;42.646;23.344;2022-12-10T13:18:33;93529.00;;;12.27;100.00
12219;BME280;6172;42.646;23.344;2022-12-10T13:21:26;93514.84;;;12.28;100.00
12219;BME280;6172;42.646;23.344;2022-12-10T13:23:54;93513.03;;;12.25;100.00